sensor_id;sensor_type;location;lat;lon;timestamp;P1;durP1;ratioP1;P2;durP2;ratioP2
10920;SDS011;5513;50.580;8.818;2023-04-03T00:01:23;2.50;;;1.00;;
10920;SDS011;5513;50.580;8.818;2023-04-03T00:03:51;1.80;;;0.97;;
10920;SDS011;5513;50.580;8.818;2023-04-03T00:06:20;3.57;;;1.30;;
10920;SDS011;5513;50.580;8.818;2023-04-03T00:08:50;1.77;;;1.00;;
10920;SDS011;5513;50.580;8.818;2023-04-03T00:11:19;3.00;;;1.10;;
10920;SDS011;5513;50.580;8.818;2023-04-03T00:13:48;2.67;;;1.10;;
10920;SDS011;5513;50.580;8.818;2023-04-03T00:16:18;4.10;;;1.40;;
10920;SDS011;5513;50.580;8.818;2023-04-03T00:18:47;2.77;;;1.00;;
10920;SDS011;5513;50.580;8.818;2023-04-03T00:21:15;2.20;;;1.10;;
10920;SDS011;5513;50.580;8.818;2023-04-03T00:23:44;3.80;;;1.20;;
10920;SDS011;5513;50.580;8.818;2023-04-03T00:26:12;3.47;;;1.10;;
10920;SDS011;5513;50.580;8.818;2023-04-03T00:28:41;2.33;;;1.27;;
10920;SDS011;5513;50.580;8.818;2023-04-03T00:31:09;3.67;;;1.30;;
10920;SDS011;5513;50.580;8.818;2023-04-03T00:33:39;3.70;;;1.13;;
10920;SDS011;5513;50.580;8.818;2023-04-03T00:36:08;2.70;;;1.20;;
10920;SDS011;5513;50.580;8.818;2023-04-03T00:38:37;2.50;;;1.00;;
10920;SDS011;5513;50.580;8.818;2023-04-03T00:41:07;4.77;;;1.10;;
10920;SDS011;5513;50.580;8.818;2023-04-03T00:43:36;1.97;;;1.10;;
10920;SDS011;5513;50.580;8.818;2023-04-03T00:46:04;2.80;;;1.10;;
10920;SDS011;5513;50.580;8.818;2023-04-03T00:48:33;1.90;;;1.20;;
10920;SDS011;5513;50.580;8.818;2023-04-03T00:51:08;2.40;;;1.13;;
10920;SDS011;5513;50.580;8.818;2023-04-03T00:53:42;1.80;;;0.97;;
10920;SDS011;5513;50.580;8.818;2023-04-03T00:56:15;3.10;;;1.10;;
10920;SDS011;5513;50.580;8.818;2023-04-03T00:58:46;3.87;;;1.10;;
10920;SDS011;5513;50.580;8.818;2023-04-03T01:01:20;2.60;;;1.37;;
10920;SDS011;5513;50.580;8.818;2023-04-03T01:03:51;4.73;;;1.30;;
10920;SDS011;5513;50.580;8.818;2023-04-03T01:06:23;3.33;;;1.50;;
10920;SDS011;5513;50.580;8.818;2023-04-03T01:08:54;3.67;;;1.30;;
10920;SDS011;5513;50.580;8.818;2023-04-03T01:11:23;3.00;;;1.30;;
10920;SDS011;5513;50.580;8.818;2023-04-03T01:13:52;2.70;;;1.30;;
10920;SDS011;5513;50.580;8.818;2023-04-03T01:16:20;4.27;;;1.40;;
10920;SDS011;5513;50.580;8.818;2023-04-03T01:18:49;3.40;;;1.10;;
10920;SDS011;5513;50.580;8.818;2023-04-03T01:24:33;4.47;;;1.53;;
10920;SDS011;5513;50.580;8.818;2023-04-03T01:27:03;6.33;;;1.27;;
10920;SDS011;5513;50.580;8.818;2023-04-03T01:29:33;4.43;;;1.30;;
10920;SDS011;5513;50.580;8.818;2023-04-03T01:32:03;2.93;;;1.40;;
10920;SDS011;5513;50.580;8.818;2023-04-03T01:34:32;3.77;;;1.23;;
10920;SDS011;5513;50.580;8.818;2023-04-03T01:37:00;2.93;;;1.20;;
10920;SDS011;5513;50.580;8.818;2023-04-03T01:39:28;3.17;;;1.20;;
10920;SDS011;5513;50.580;8.818;2023-04-03T01:41:56;3.13;;;1.30;;
10920;SDS011;5513;50.580;8.818;2023-04-03T01:44:26;4.53;;;1.40;;
10920;SDS011;5513;50.580;8.818;2023-04-03T01:46:54;3.40;;;1.20;;
10920;SDS011;5513;50.580;8.818;2023-04-03T01:49:24;2.43;;;1.13;;
10920;SDS011;5513;50.580;8.818;2023-04-03T01:51:53;4.13;;;1.20;;
10920;SDS011;5513;50.580;8.818;2023-04-03T01:54:21;4.00;;;1.17;;
10920;SDS011;5513;50.580;8.818;2023-04-03T01:56:51;2.47;;;1.10;;
10920;SDS011;5513;50.580;8.818;2023-04-03T01:59:19;5.63;;;1.17;;
10920;SDS011;5513;50.580;8.818;2023-04-03T02:01:48;1.83;;;1.00;;
10920;SDS011;5513;50.580;8.818;2023-04-03T02:04:16;3.23;;;1.20;;
10920;SDS011;5513;50.580;8.818;2023-04-03T02:06:46;4.90;;;1.37;;
10920;SDS011;5513;50.580;8.818;2023-04-03T02:09:14;5.43;;;1.40;;
10920;SDS011;5513;50.580;8.818;2023-04-03T02:11:42;3.53;;;1.30;;
10920;SDS011;5513;50.580;8.818;2023-04-03T02:14:11;4.03;;;1.17;;
10920;SDS011;5513;50.580;8.818;2023-04-03T02:16:39;3.50;;;1.13;;
10920;SDS011;5513;50.580;8.818;2023-04-03T02:19:08;1.93;;;1.10;;
10920;SDS011;5513;50.580;8.818;2023-04-03T02:21:36;5.80;;;1.50;;
10920;SDS011;5513;50.580;8.818;2023-04-03T02:24:06;3.83;;;1.07;;
10920;SDS011;5513;50.580;8.818;2023-04-03T02:26:35;4.60;;;1.10;;
10920;SDS011;5513;50.580;8.818;2023-04-03T02:29:03;6.80;;;1.53;;
10920;SDS011;5513;50.580;8.818;2023-04-03T02:31:32;2.97;;;1.27;;
10920;SDS011;5513;50.580;8.818;2023-04-03T02:34:00;4.60;;;1.30;;
10920;SDS011;5513;50.580;8.818;2023-04-03T02:36:28;3.97;;;1.40;;
10920;SDS011;5513;50.580;8.818;2023-04-03T02:38:58;4.87;;;1.40;;
10920;SDS011;5513;50.580;8.818;2023-04-03T02:41:28;3.70;;;1.40;;
10920;SDS011;5513;50.580;8.818;2023-04-03T02:44:04;5.10;;;1.20;;
10920;SDS011;5513;50.580;8.818;2023-04-03T02:46:34;4.90;;;1.33;;
10920;SDS011;5513;50.580;8.818;2023-04-03T02:49:02;2.77;;;1.17;;
10920;SDS011;5513;50.580;8.818;2023-04-03T02:51:33;3.17;;;1.33;;
10920;SDS011;5513;50.580;8.818;2023-04-03T02:54:01;3.70;;;1.40;;
10920;SDS011;5513;50.580;8.818;2023-04-03T02:56:31;5.13;;;1.53;;
10920;SDS011;5513;50.580;8.818;2023-04-03T02:59:02;4.97;;;1.30;;
10920;SDS011;5513;50.580;8.818;2023-04-03T03:01:31;3.10;;;1.23;;
10920;SDS011;5513;50.580;8.818;2023-04-03T03:04:00;4.00;;;1.40;;
10920;SDS011;5513;50.580;8.818;2023-04-03T03:06:28;3.40;;;1.13;;
10920;SDS011;5513;50.580;8.818;2023-04-03T03:08:57;2.90;;;1.60;;
10920;SDS011;5513;50.580;8.818;2023-04-03T03:11:26;5.13;;;1.60;;
10920;SDS011;5513;50.580;8.818;2023-04-03T03:13:56;4.10;;;1.37;;
10920;SDS011;5513;50.580;8.818;2023-04-03T03:16:28;3.43;;;1.40;;
10920;SDS011;5513;50.580;8.818;2023-04-03T03:18:57;1.60;;;1.27;;
10920;SDS011;5513;50.580;8.818;2023-04-03T03:21:26;4.67;;;1.27;;
10920;SDS011;5513;50.580;8.818;2023-04-03T03:23:55;3.03;;;1.20;;
10920;SDS011;5513;50.580;8.818;2023-04-03T03:26:23;4.20;;;1.20;;
10920;SDS011;5513;50.580;8.818;2023-04-03T03:28:51;3.83;;;1.10;;
10920;SDS011;5513;50.580;8.818;2023-04-03T03:31:24;5.37;;;1.40;;
10920;SDS011;5513;50.580;8.818;2023-04-03T03:33:52;4.73;;;1.50;;
10920;SDS011;5513;50.580;8.818;2023-04-03T03:36:20;4.03;;;1.20;;
10920;SDS011;5513;50.580;8.818;2023-04-03T03:38:49;5.87;;;1.53;;
10920;SDS011;5513;50.580;8.818;2023-04-03T03:41:19;4.40;;;1.17;;
10920;SDS011;5513;50.580;8.818;2023-04-03T03:43:48;5.33;;;1.47;;
10920;SDS011;5513;50.580;8.818;2023-04-03T03:46:17;4.43;;;1.30;;
10920;SDS011;5513;50.580;8.818;2023-04-03T03:48:47;2.90;;;1.37;;
10920;SDS011;5513;50.580;8.818;2023-04-03T03:51:16;3.30;;;1.10;;
10920;SDS011;5513;50.580;8.818;2023-04-03T03:53:44;5.27;;;1.20;;
10920;SDS011;5513;50.580;8.818;2023-04-03T03:56:13;5.70;;;1.33;;
10920;SDS011;5513;50.580;8.818;2023-04-03T03:58:42;2.60;;;1.17;;
10920;SDS011;5513;50.580;8.818;2023-04-03T04:01:10;3.10;;;1.30;;
10920;SDS011;5513;50.580;8.818;2023-04-03T04:03:39;5.53;;;1.50;;
10920;SDS011;5513;50.580;8.818;2023-04-03T04:06:09;5.00;;;1.53;;
10920;SDS011;5513;50.580;8.818;2023-04-03T04:08:37;5.83;;;1.50;;
10920;SDS011;5513;50.580;8.818;2023-04-03T04:11:06;5.57;;;1.57;;
10920;SDS011;5513;50.580;8.818;2023-04-03T04:13:35;7.20;;;1.67;;
10920;SDS011;5513;50.580;8.818;2023-04-03T04:16:04;6.67;;;1.93;;
10920;SDS011;5513;50.580;8.818;2023-04-03T04:18:33;6.50;;;1.57;;
10920;SDS011;5513;50.580;8.818;2023-04-03T04:21:02;5.40;;;1.73;;
10920;SDS011;5513;50.580;8.818;2023-04-03T04:23:32;4.83;;;1.50;;
10920;SDS011;5513;50.580;8.818;2023-04-03T04:26:00;4.73;;;1.60;;
10920;SDS011;5513;50.580;8.818;2023-04-03T04:28:28;4.13;;;1.57;;
10920;SDS011;5513;50.580;8.818;2023-04-03T04:30:57;4.17;;;1.47;;
10920;SDS011;5513;50.580;8.818;2023-04-03T04:33:26;8.57;;;1.67;;
10920;SDS011;5513;50.580;8.818;2023-04-03T04:35:54;4.93;;;1.50;;
10920;SDS011;5513;50.580;8.818;2023-04-03T04:38:23;3.00;;;1.30;;
10920;SDS011;5513;50.580;8.818;2023-04-03T04:40:52;4.83;;;1.70;;
10920;SDS011;5513;50.580;8.818;2023-04-03T04:43:21;5.20;;;1.57;;
10920;SDS011;5513;50.580;8.818;2023-04-03T04:45:57;5.13;;;1.53;;
10920;SDS011;5513;50.580;8.818;2023-04-03T04:48:28;5.80;;;1.80;;
10920;SDS011;5513;50.580;8.818;2023-04-03T04:50:59;5.47;;;1.40;;
10920;SDS011;5513;50.580;8.818;2023-04-03T04:53:27;4.37;;;1.60;;
10920;SDS011;5513;50.580;8.818;2023-04-03T04:55:59;5.77;;;2.00;;
10920;SDS011;5513;50.580;8.818;2023-04-03T04:58:29;5.37;;;1.50;;
10920;SDS011;5513;50.580;8.818;2023-04-03T05:00:58;2.87;;;1.37;;
10920;SDS011;5513;50.580;8.818;2023-04-03T05:03:29;7.53;;;1.97;;
10920;SDS011;5513;50.580;8.818;2023-04-03T05:05:57;5.23;;;1.70;;
10920;SDS011;5513;50.580;8.818;2023-04-03T05:08:26;6.57;;;1.53;;
10920;SDS011;5513;50.580;8.818;2023-04-03T05:10:55;3.87;;;1.63;;
10920;SDS011;5513;50.580;8.818;2023-04-03T05:13:24;4.07;;;1.53;;
10920;SDS011;5513;50.580;8.818;2023-04-03T05:15:53;7.30;;;1.70;;
10920;SDS011;5513;50.580;8.818;2023-04-03T05:18:21;5.07;;;1.70;;
10920;SDS011;5513;50.580;8.818;2023-04-03T05:20:50;3.53;;;1.47;;
10920;SDS011;5513;50.580;8.818;2023-04-03T05:23:19;4.30;;;1.83;;
10920;SDS011;5513;50.580;8.818;2023-04-03T05:25:47;4.23;;;2.23;;
10920;SDS011;5513;50.580;8.818;2023-04-03T05:28:16;7.57;;;2.67;;
10920;SDS011;5513;50.580;8.818;2023-04-03T05:30:47;9.17;;;4.13;;
10920;SDS011;5513;50.580;8.818;2023-04-03T05:33:21;5.97;;;2.10;;
10920;SDS011;5513;50.580;8.818;2023-04-03T05:35:50;5.67;;;1.97;;
10920;SDS011;5513;50.580;8.818;2023-04-03T05:38:18;3.23;;;1.70;;
10920;SDS011;5513;50.580;8.818;2023-04-03T05:40:47;3.27;;;1.53;;
10920;SDS011;5513;50.580;8.818;2023-04-03T05:43:15;4.47;;;1.63;;
10920;SDS011;5513;50.580;8.818;2023-04-03T05:45:44;3.87;;;1.63;;
10920;SDS011;5513;50.580;8.818;2023-04-03T05:48:15;9.63;;;2.00;;
10920;SDS011;5513;50.580;8.818;2023-04-03T05:50:43;3.67;;;1.43;;
10920;SDS011;5513;50.580;8.818;2023-04-03T05:53:15;5.97;;;2.00;;
10920;SDS011;5513;50.580;8.818;2023-04-03T05:55:48;6.13;;;1.73;;
10920;SDS011;5513;50.580;8.818;2023-04-03T05:58:17;5.17;;;1.67;;
10920;SDS011;5513;50.580;8.818;2023-04-03T06:00:45;5.10;;;2.10;;
10920;SDS011;5513;50.580;8.818;2023-04-03T06:03:16;7.57;;;2.10;;
10920;SDS011;5513;50.580;8.818;2023-04-03T06:05:44;6.20;;;2.23;;
10920;SDS011;5513;50.580;8.818;2023-04-03T06:08:13;4.17;;;2.00;;
10920;SDS011;5513;50.580;8.818;2023-04-03T06:10:41;9.13;;;3.97;;
10920;SDS011;5513;50.580;8.818;2023-04-03T06:13:13;6.43;;;2.73;;
10920;SDS011;5513;50.580;8.818;2023-04-03T06:15:41;4.13;;;2.00;;
10920;SDS011;5513;50.580;8.818;2023-04-03T06:18:09;7.27;;;2.23;;
10920;SDS011;5513;50.580;8.818;2023-04-03T06:20:39;7.30;;;2.40;;
10920;SDS011;5513;50.580;8.818;2023-04-03T06:23:07;5.80;;;2.17;;
10920;SDS011;5513;50.580;8.818;2023-04-03T06:25:36;6.27;;;2.10;;
10920;SDS011;5513;50.580;8.818;2023-04-03T06:28:05;4.63;;;2.27;;
10920;SDS011;5513;50.580;8.818;2023-04-03T06:30:35;8.53;;;2.40;;
10920;SDS011;5513;50.580;8.818;2023-04-03T06:33:04;6.03;;;2.13;;
10920;SDS011;5513;50.580;8.818;2023-04-03T06:35:33;7.53;;;2.43;;
10920;SDS011;5513;50.580;8.818;2023-04-03T06:38:03;4.20;;;2.07;;
10920;SDS011;5513;50.580;8.818;2023-04-03T06:40:35;7.77;;;2.27;;
10920;SDS011;5513;50.580;8.818;2023-04-03T06:43:06;6.60;;;2.43;;
10920;SDS011;5513;50.580;8.818;2023-04-03T06:45:35;4.63;;;2.40;;
10920;SDS011;5513;50.580;8.818;2023-04-03T06:48:03;5.43;;;2.20;;
10920;SDS011;5513;50.580;8.818;2023-04-03T06:50:32;6.80;;;2.27;;
10920;SDS011;5513;50.580;8.818;2023-04-03T06:53:03;7.83;;;2.80;;
10920;SDS011;5513;50.580;8.818;2023-04-03T06:55:33;5.90;;;2.30;;
10920;SDS011;5513;50.580;8.818;2023-04-03T06:58:03;6.93;;;2.83;;
10920;SDS011;5513;50.580;8.818;2023-04-03T07:00:33;4.17;;;2.40;;
10920;SDS011;5513;50.580;8.818;2023-04-03T07:03:02;6.40;;;2.90;;
10920;SDS011;5513;50.580;8.818;2023-04-03T07:05:30;4.53;;;2.27;;
10920;SDS011;5513;50.580;8.818;2023-04-03T07:07:58;6.40;;;2.47;;
10920;SDS011;5513;50.580;8.818;2023-04-03T07:10:29;4.63;;;2.10;;
10920;SDS011;5513;50.580;8.818;2023-04-03T07:13:01;10.03;;;2.70;;
10920;SDS011;5513;50.580;8.818;2023-04-03T07:15:30;5.30;;;2.13;;
10920;SDS011;5513;50.580;8.818;2023-04-03T07:17:59;4.10;;;2.30;;
10920;SDS011;5513;50.580;8.818;2023-04-03T07:20:28;5.83;;;2.53;;
10920;SDS011;5513;50.580;8.818;2023-04-03T07:22:56;5.80;;;2.10;;
10920;SDS011;5513;50.580;8.818;2023-04-03T07:25:29;6.27;;;2.40;;
10920;SDS011;5513;50.580;8.818;2023-04-03T07:27:58;7.07;;;2.40;;
10920;SDS011;5513;50.580;8.818;2023-04-03T07:30:26;5.67;;;2.20;;
10920;SDS011;5513;50.580;8.818;2023-04-03T07:32:54;4.47;;;2.40;;
10920;SDS011;5513;50.580;8.818;2023-04-03T07:35:23;6.97;;;2.30;;
10920;SDS011;5513;50.580;8.818;2023-04-03T07:37:51;5.00;;;1.70;;
10920;SDS011;5513;50.580;8.818;2023-04-03T07:40:21;5.83;;;2.50;;
10920;SDS011;5513;50.580;8.818;2023-04-03T07:42:51;3.33;;;2.17;;
10920;SDS011;5513;50.580;8.818;2023-04-03T07:45:19;5.50;;;2.27;;
10920;SDS011;5513;50.580;8.818;2023-04-03T07:47:49;4.93;;;2.10;;
10920;SDS011;5513;50.580;8.818;2023-04-03T07:50:18;4.27;;;2.47;;
10920;SDS011;5513;50.580;8.818;2023-04-03T07:52:47;7.33;;;2.20;;
10920;SDS011;5513;50.580;8.818;2023-04-03T07:55:19;6.90;;;2.17;;
10920;SDS011;5513;50.580;8.818;2023-04-03T07:57:51;5.87;;;1.90;;
10920;SDS011;5513;50.580;8.818;2023-04-03T08:00:22;5.23;;;2.50;;
10920;SDS011;5513;50.580;8.818;2023-04-03T08:02:51;8.77;;;2.10;;
10920;SDS011;5513;50.580;8.818;2023-04-03T08:05:21;5.60;;;2.33;;
10920;SDS011;5513;50.580;8.818;2023-04-03T08:07:50;3.87;;;2.30;;
10920;SDS011;5513;50.580;8.818;2023-04-03T08:10:18;6.37;;;2.20;;
10920;SDS011;5513;50.580;8.818;2023-04-03T08:12:46;6.13;;;2.20;;
10920;SDS011;5513;50.580;8.818;2023-04-03T08:15:17;5.33;;;2.20;;
10920;SDS011;5513;50.580;8.818;2023-04-03T08:17:45;5.63;;;2.13;;
10920;SDS011;5513;50.580;8.818;2023-04-03T08:20:13;3.17;;;2.00;;
10920;SDS011;5513;50.580;8.818;2023-04-03T08:22:42;5.50;;;1.80;;
10920;SDS011;5513;50.580;8.818;2023-04-03T08:25:10;3.57;;;2.00;;
10920;SDS011;5513;50.580;8.818;2023-04-03T08:27:38;5.70;;;1.90;;
10920;SDS011;5513;50.580;8.818;2023-04-03T08:30:07;3.90;;;2.40;;
10920;SDS011;5513;50.580;8.818;2023-04-03T08:32:38;5.07;;;1.93;;
10920;SDS011;5513;50.580;8.818;2023-04-03T08:35:08;3.63;;;1.90;;
10920;SDS011;5513;50.580;8.818;2023-04-03T08:37:37;4.40;;;1.87;;
10920;SDS011;5513;50.580;8.818;2023-04-03T08:40:07;3.93;;;2.20;;
10920;SDS011;5513;50.580;8.818;2023-04-03T08:42:42;6.40;;;1.93;;
10920;SDS011;5513;50.580;8.818;2023-04-03T08:45:19;5.53;;;2.13;;
10920;SDS011;5513;50.580;8.818;2023-04-03T08:48:00;3.77;;;1.70;;
10920;SDS011;5513;50.580;8.818;2023-04-03T08:50:36;7.30;;;1.97;;
10920;SDS011;5513;50.580;8.818;2023-04-03T08:53:10;6.33;;;2.00;;
10920;SDS011;5513;50.580;8.818;2023-04-03T08:55:42;6.10;;;2.10;;
10920;SDS011;5513;50.580;8.818;2023-04-03T08:58:14;4.17;;;2.07;;
10920;SDS011;5513;50.580;8.818;2023-04-03T09:00:47;2.53;;;1.90;;
10920;SDS011;5513;50.580;8.818;2023-04-03T09:03:20;4.67;;;2.50;;
10920;SDS011;5513;50.580;8.818;2023-04-03T09:05:50;4.23;;;2.20;;
10920;SDS011;5513;50.580;8.818;2023-04-03T09:08:26;3.53;;;2.27;;
10920;SDS011;5513;50.580;8.818;2023-04-03T09:11:08;5.80;;;3.27;;
10920;SDS011;5513;50.580;8.818;2023-04-03T09:13:44;4.03;;;1.90;;
10920;SDS011;5513;50.580;8.818;2023-04-03T09:16:25;3.00;;;2.00;;
10920;SDS011;5513;50.580;8.818;2023-04-03T09:19:04;5.33;;;2.00;;
10920;SDS011;5513;50.580;8.818;2023-04-03T09:21:43;5.33;;;2.20;;
10920;SDS011;5513;50.580;8.818;2023-04-03T09:24:12;4.87;;;2.50;;
10920;SDS011;5513;50.580;8.818;2023-04-03T09:26:42;7.80;;;2.60;;
10920;SDS011;5513;50.580;8.818;2023-04-03T09:29:17;6.07;;;2.30;;
10920;SDS011;5513;50.580;8.818;2023-04-03T09:31:49;5.37;;;2.30;;
10920;SDS011;5513;50.580;8.818;2023-04-03T09:34:24;5.00;;;1.90;;
10920;SDS011;5513;50.580;8.818;2023-04-03T09:36:56;4.00;;;1.70;;
10920;SDS011;5513;50.580;8.818;2023-04-03T09:39:26;3.40;;;1.63;;
10920;SDS011;5513;50.580;8.818;2023-04-03T09:41:57;4.27;;;2.23;;
10920;SDS011;5513;50.580;8.818;2023-04-03T09:44:30;3.60;;;1.80;;
10920;SDS011;5513;50.580;8.818;2023-04-03T09:47:00;5.07;;;2.20;;
10920;SDS011;5513;50.580;8.818;2023-04-03T09:49:47;4.07;;;2.07;;
10920;SDS011;5513;50.580;8.818;2023-04-03T09:52:19;5.73;;;2.30;;
10920;SDS011;5513;50.580;8.818;2023-04-03T09:54:55;6.40;;;2.67;;
10920;SDS011;5513;50.580;8.818;2023-04-03T09:57:35;4.77;;;1.87;;
10920;SDS011;5513;50.580;8.818;2023-04-03T10:00:04;2.23;;;1.53;;
10920;SDS011;5513;50.580;8.818;2023-04-03T10:02:37;3.50;;;1.90;;
10920;SDS011;5513;50.580;8.818;2023-04-03T10:08:07;4.30;;;1.90;;
10920;SDS011;5513;50.580;8.818;2023-04-03T10:10:48;3.73;;;2.00;;
10920;SDS011;5513;50.580;8.818;2023-04-03T10:13:32;7.63;;;2.33;;
10920;SDS011;5513;50.580;8.818;2023-04-03T10:16:16;4.67;;;1.87;;
10920;SDS011;5513;50.580;8.818;2023-04-03T10:18:53;5.77;;;1.83;;
10920;SDS011;5513;50.580;8.818;2023-04-03T10:21:38;3.00;;;1.63;;
10920;SDS011;5513;50.580;8.818;2023-04-03T10:24:13;6.10;;;2.13;;
10920;SDS011;5513;50.580;8.818;2023-04-03T10:26:50;4.23;;;2.00;;
10920;SDS011;5513;50.580;8.818;2023-04-03T10:29:31;6.33;;;2.90;;
10920;SDS011;5513;50.580;8.818;2023-04-03T10:32:22;4.43;;;2.00;;
10920;SDS011;5513;50.580;8.818;2023-04-03T10:35:00;6.53;;;2.03;;
10920;SDS011;5513;50.580;8.818;2023-04-03T10:37:39;4.57;;;1.73;;
10920;SDS011;5513;50.580;8.818;2023-04-03T10:40:23;2.60;;;2.00;;
10920;SDS011;5513;50.580;8.818;2023-04-03T10:43:01;3.43;;;1.90;;
10920;SDS011;5513;50.580;8.818;2023-04-03T10:45:40;4.77;;;1.80;;
10920;SDS011;5513;50.580;8.818;2023-04-03T10:48:18;3.80;;;1.80;;
10920;SDS011;5513;50.580;8.818;2023-04-03T10:51:05;2.87;;;1.13;;
10920;SDS011;5513;50.580;8.818;2023-04-03T10:53:47;1.87;;;1.20;;
10920;SDS011;5513;50.580;8.818;2023-04-03T10:56:25;2.53;;;1.20;;
10920;SDS011;5513;50.580;8.818;2023-04-03T10:59:01;2.43;;;1.40;;
10920;SDS011;5513;50.580;8.818;2023-04-03T11:01:38;4.13;;;1.30;;
10920;SDS011;5513;50.580;8.818;2023-04-03T11:04:09;2.53;;;1.50;;
10920;SDS011;5513;50.580;8.818;2023-04-03T11:06:40;1.90;;;1.60;;
10920;SDS011;5513;50.580;8.818;2023-04-03T11:09:18;2.50;;;1.57;;
10920;SDS011;5513;50.580;8.818;2023-04-03T11:11:53;3.77;;;2.20;;
10920;SDS011;5513;50.580;8.818;2023-04-03T11:14:29;3.53;;;1.30;;
10920;SDS011;5513;50.580;8.818;2023-04-03T11:17:11;2.87;;;1.33;;
10920;SDS011;5513;50.580;8.818;2023-04-03T11:19:49;1.33;;;1.07;;
10920;SDS011;5513;50.580;8.818;2023-04-03T11:22:23;2.30;;;0.83;;
10920;SDS011;5513;50.580;8.818;2023-04-03T11:24:58;2.10;;;1.07;;
10920;SDS011;5513;50.580;8.818;2023-04-03T11:27:33;3.20;;;1.50;;
10920;SDS011;5513;50.580;8.818;2023-04-03T11:30:09;2.57;;;1.27;;
10920;SDS011;5513;50.580;8.818;2023-04-03T11:32:53;4.13;;;1.30;;
10920;SDS011;5513;50.580;8.818;2023-04-03T11:35:31;4.40;;;1.47;;
10920;SDS011;5513;50.580;8.818;2023-04-03T11:38:03;4.00;;;1.33;;
10920;SDS011;5513;50.580;8.818;2023-04-03T11:40:36;3.30;;;1.23;;
10920;SDS011;5513;50.580;8.818;2023-04-03T11:43:15;3.27;;;1.40;;
10920;SDS011;5513;50.580;8.818;2023-04-03T11:46:09;2.40;;;1.47;;
10920;SDS011;5513;50.580;8.818;2023-04-03T11:48:42;2.60;;;1.10;;
10920;SDS011;5513;50.580;8.818;2023-04-03T11:51:38;2.37;;;1.30;;
10920;SDS011;5513;50.580;8.818;2023-04-03T12:00:47;4.73;;;1.23;;
10920;SDS011;5513;50.580;8.818;2023-04-03T12:06:47;2.43;;;1.20;;
10920;SDS011;5513;50.580;8.818;2023-04-03T12:09:25;3.97;;;1.33;;
10920;SDS011;5513;50.580;8.818;2023-04-03T12:12:01;4.07;;;1.57;;
10920;SDS011;5513;50.580;8.818;2023-04-03T12:14:56;5.63;;;1.93;;
10920;SDS011;5513;50.580;8.818;2023-04-03T12:17:54;3.30;;;1.37;;
10920;SDS011;5513;50.580;8.818;2023-04-03T12:23:23;3.27;;;1.10;;
10920;SDS011;5513;50.580;8.818;2023-04-03T12:25:54;2.57;;;1.10;;
10920;SDS011;5513;50.580;8.818;2023-04-03T12:28:35;2.17;;;1.40;;
10920;SDS011;5513;50.580;8.818;2023-04-03T12:31:08;3.57;;;1.33;;
10920;SDS011;5513;50.580;8.818;2023-04-03T12:33:43;2.00;;;0.90;;
10920;SDS011;5513;50.580;8.818;2023-04-03T12:36:27;2.27;;;1.20;;
10920;SDS011;5513;50.580;8.818;2023-04-03T12:39:13;3.27;;;1.10;;
10920;SDS011;5513;50.580;8.818;2023-04-03T12:41:56;2.40;;;1.17;;
10920;SDS011;5513;50.580;8.818;2023-04-03T12:44:36;4.30;;;1.33;;
10920;SDS011;5513;50.580;8.818;2023-04-03T12:47:21;2.70;;;1.10;;
10920;SDS011;5513;50.580;8.818;2023-04-03T12:49:52;3.53;;;1.20;;
10920;SDS011;5513;50.580;8.818;2023-04-03T12:52:25;3.23;;;1.37;;
10920;SDS011;5513;50.580;8.818;2023-04-03T12:55:01;2.07;;;1.20;;
10920;SDS011;5513;50.580;8.818;2023-04-03T12:57:36;2.83;;;1.13;;
10920;SDS011;5513;50.580;8.818;2023-04-03T13:02:59;3.00;;;1.50;;
10920;SDS011;5513;50.580;8.818;2023-04-03T13:05:29;2.60;;;1.40;;
10920;SDS011;5513;50.580;8.818;2023-04-03T13:08:02;1.53;;;1.07;;
10920;SDS011;5513;50.580;8.818;2023-04-03T13:10:49;3.00;;;1.07;;
10920;SDS011;5513;50.580;8.818;2023-04-03T13:13:22;3.57;;;1.30;;
10920;SDS011;5513;50.580;8.818;2023-04-03T13:15:52;1.90;;;1.10;;
10920;SDS011;5513;50.580;8.818;2023-04-03T13:18:28;2.90;;;1.17;;
10920;SDS011;5513;50.580;8.818;2023-04-03T13:21:01;3.23;;;1.20;;
10920;SDS011;5513;50.580;8.818;2023-04-03T13:23:32;2.63;;;1.10;;
10920;SDS011;5513;50.580;8.818;2023-04-03T13:26:06;2.30;;;1.10;;
10920;SDS011;5513;50.580;8.818;2023-04-03T13:28:39;2.17;;;1.00;;
10920;SDS011;5513;50.580;8.818;2023-04-03T13:31:14;2.70;;;1.20;;
10920;SDS011;5513;50.580;8.818;2023-04-03T13:33:54;2.43;;;1.10;;
10920;SDS011;5513;50.580;8.818;2023-04-03T13:36:25;2.47;;;1.10;;
10920;SDS011;5513;50.580;8.818;2023-04-03T13:38:57;2.50;;;1.37;;
10920;SDS011;5513;50.580;8.818;2023-04-03T13:41:29;3.63;;;1.67;;
10920;SDS011;5513;50.580;8.818;2023-04-03T13:46:52;2.60;;;1.20;;
10920;SDS011;5513;50.580;8.818;2023-04-03T13:49:27;2.33;;;1.20;;
10920;SDS011;5513;50.580;8.818;2023-04-03T13:51:58;2.27;;;1.10;;
10920;SDS011;5513;50.580;8.818;2023-04-03T13:54:34;4.57;;;1.30;;
10920;SDS011;5513;50.580;8.818;2023-04-03T13:57:11;2.60;;;1.20;;
10920;SDS011;5513;50.580;8.818;2023-04-03T13:59:42;3.33;;;1.10;;
10920;SDS011;5513;50.580;8.818;2023-04-03T14:02:15;2.57;;;1.20;;
10920;SDS011;5513;50.580;8.818;2023-04-03T14:04:52;4.50;;;1.30;;
10920;SDS011;5513;50.580;8.818;2023-04-03T14:07:26;2.73;;;1.43;;
10920;SDS011;5513;50.580;8.818;2023-04-03T14:09:55;3.90;;;1.40;;
10920;SDS011;5513;50.580;8.818;2023-04-03T14:12:25;3.07;;;1.27;;
10920;SDS011;5513;50.580;8.818;2023-04-03T14:14:58;3.40;;;1.00;;
10920;SDS011;5513;50.580;8.818;2023-04-03T14:17:28;2.30;;;0.90;;
10920;SDS011;5513;50.580;8.818;2023-04-03T14:19:59;2.63;;;1.37;;
10920;SDS011;5513;50.580;8.818;2023-04-03T14:22:29;3.57;;;1.80;;
10920;SDS011;5513;50.580;8.818;2023-04-03T14:24:59;3.70;;;1.67;;
10920;SDS011;5513;50.580;8.818;2023-04-03T14:27:29;4.97;;;1.73;;
10920;SDS011;5513;50.580;8.818;2023-04-03T14:30:02;2.83;;;1.40;;
10920;SDS011;5513;50.580;8.818;2023-04-03T14:32:31;1.60;;;1.20;;
10920;SDS011;5513;50.580;8.818;2023-04-03T14:35:02;1.67;;;1.20;;
10920;SDS011;5513;50.580;8.818;2023-04-03T14:37:31;3.20;;;1.30;;
10920;SDS011;5513;50.580;8.818;2023-04-03T14:40:03;3.00;;;1.20;;
10920;SDS011;5513;50.580;8.818;2023-04-03T14:42:36;2.70;;;1.43;;
10920;SDS011;5513;50.580;8.818;2023-04-03T14:45:06;2.70;;;1.10;;
10920;SDS011;5513;50.580;8.818;2023-04-03T14:47:39;2.37;;;1.37;;
10920;SDS011;5513;50.580;8.818;2023-04-03T14:50:14;2.63;;;1.23;;
10920;SDS011;5513;50.580;8.818;2023-04-03T14:52:47;1.77;;;1.20;;
10920;SDS011;5513;50.580;8.818;2023-04-03T14:55:20;1.97;;;1.20;;
10920;SDS011;5513;50.580;8.818;2023-04-03T14:57:50;3.37;;;1.40;;
10920;SDS011;5513;50.580;8.818;2023-04-03T15:00:20;4.90;;;1.63;;
10920;SDS011;5513;50.580;8.818;2023-04-03T15:02:49;1.97;;;1.03;;
10920;SDS011;5513;50.580;8.818;2023-04-03T15:05:19;4.13;;;1.20;;
10920;SDS011;5513;50.580;8.818;2023-04-03T15:07:48;2.73;;;1.30;;
10920;SDS011;5513;50.580;8.818;2023-04-03T15:10:21;3.40;;;1.10;;
10920;SDS011;5513;50.580;8.818;2023-04-03T15:12:51;3.80;;;1.23;;
10920;SDS011;5513;50.580;8.818;2023-04-03T15:15:21;2.07;;;1.20;;
10920;SDS011;5513;50.580;8.818;2023-04-03T15:17:51;1.67;;;1.20;;
10920;SDS011;5513;50.580;8.818;2023-04-03T15:20:26;3.00;;;1.60;;
10920;SDS011;5513;50.580;8.818;2023-04-03T15:22:57;2.30;;;1.33;;
10920;SDS011;5513;50.580;8.818;2023-04-03T15:25:27;2.13;;;1.23;;
10920;SDS011;5513;50.580;8.818;2023-04-03T15:27:58;3.47;;;1.37;;
10920;SDS011;5513;50.580;8.818;2023-04-03T15:30:28;1.53;;;0.97;;
10920;SDS011;5513;50.580;8.818;2023-04-03T15:32:56;2.97;;;1.20;;
10920;SDS011;5513;50.580;8.818;2023-04-03T15:35:26;2.67;;;1.27;;
10920;SDS011;5513;50.580;8.818;2023-04-03T15:37:55;3.73;;;1.20;;
10920;SDS011;5513;50.580;8.818;2023-04-03T15:40:24;5.27;;;1.30;;
10920;SDS011;5513;50.580;8.818;2023-04-03T15:42:52;3.10;;;1.47;;
10920;SDS011;5513;50.580;8.818;2023-04-03T15:45:23;3.57;;;1.40;;
10920;SDS011;5513;50.580;8.818;2023-04-03T15:47:53;4.20;;;1.30;;
10920;SDS011;5513;50.580;8.818;2023-04-03T15:50:22;2.50;;;1.10;;
10920;SDS011;5513;50.580;8.818;2023-04-03T15:52:52;5.53;;;2.10;;